Time;durP1;ratioP1;P1;durP2;ratioP2;P2;SDS_P1;SDS_P2;PMS_P1;PMS_P2;Temp;Humidity;BMP_temperature;BMP_pressure;BME280_temperature;BME280_humidity;BME280_pressure;Samples;Min_cycle;Max_cycle;Signal;HPM_P1;HPM_P2
2022/05/05 00:02:12;;;;;;;26.25;17.20;;;;;;;;;;5051356;28;20479;-68
2022/05/05 00:05:16;;;;;;;29.80;17.35;;;;;;;;;;5050789;28;20036;-68
2022/05/05 00:08:21;;;;;;;23.00;16.55;;;;;;;;;;5051447;28;20110;-68
2022/05/05 00:14:48;;;;;;;21.25;16.23;;;;;;;;;;5051377;28;20044;-68
2022/05/05 00:17:52;;;;;;;26.45;15.85;;;;;;;;;;5051081;28;20044;-68
2022/05/05 00:20:57;;;;;;;23.17;14.77;;;;;;;;;;5050998;28;20055;-68
2022/05/05 00:24:01;;;;;;;22.00;15.10;;;;;;;;;;5051189;28;20508;-69
2022/05/05 00:27:06;;;;;;;24.80;14.88;;;;;;;;;;5050818;28;20048;-68
2022/05/05 00:30:11;;;;;;;20.60;15.27;;;;;;;;;;5051136;28;20112;-68
2022/05/05 00:33:15;;;;;;;21.00;15.55;;;;;;;;;;5050748;28;20048;-69
2022/05/05 00:36:20;;;;;;;21.55;16.35;;;;;;;;;;5050917;28;20048;-68
2022/05/05 00:39:24;;;;;;;23.27;15.68;;;;;;;;;;5049934;28;20056;-68
2022/05/05 00:42:28;;;;;;;22.55;16.98;;;;;;;;;;5050904;28;20051;-68
2022/05/05 00:45:33;;;;;;;20.58;15.48;;;;;;;;;;5050592;28;20290;-68
2022/05/05 00:48:37;;;;;;;21.25;14.90;;;;;;;;;;5051206;28;20392;-68
2022/05/05 00:51:41;;;;;;;19.95;15.32;;;;;;;;;;5052850;28;20048;-68
2022/05/05 00:54:46;;;;;;;17.90;14.45;;;;;;;;;;5054555;28;20040;-69
2022/05/05 00:57:50;;;;;;;19.35;14.10;;;;;;;;;;5055117;28;20052;-69
2022/05/05 01:00:55;;;;;;;21.95;12.95;;;;;;;;;;5054646;28;20056;-68
2022/05/05 01:03:59;;;;;;;18.13;13.70;;;;;;;;;;5054679;28;20044;-68
2022/05/05 01:07:04;;;;;;;20.75;14.27;;;;;;;;;;5055125;28;20048;-69
2022/05/05 01:10:09;;;;;;;20.98;13.63;;;;;;;;;;5054697;28;20056;-68
2022/05/05 01:13:13;;;;;;;24.40;14.00;;;;;;;;;;5056486;28;20048;-68
2022/05/05 01:16:17;;;;;;;18.60;14.55;;;;;;;;;;5054860;28;20040;-68
2022/05/05 01:19:22;;;;;;;18.35;14.32;;;;;;;;;;5054338;28;20056;-68
2022/05/05 01:22:26;;;;;;;19.23;14.18;;;;;;;;;;5054664;28;20052;-68
2022/05/05 01:28:53;;;;;;;18.75;14.45;;;;;;;;;;5053710;28;20523;-68
2022/05/05 01:31:58;;;;;;;22.00;14.50;;;;;;;;;;5054428;28;20044;-68
2022/05/05 01:35:02;;;;;;;20.17;15.20;;;;;;;;;;5054184;28;20036;-68
2022/05/05 01:38:11;;;;;;;21.65;16.38;;;;;;;;;;5053312;28;20067;-69
2022/05/05 01:41:15;;;;;;;20.33;15.70;;;;;;;;;;5053874;28;20052;-68
2022/05/05 01:44:20;;;;;;;21.17;15.45;;;;;;;;;;5054082;28;20041;-68
2022/05/05 01:47:24;;;;;;;26.13;16.55;;;;;;;;;;5054194;28;20052;-68
2022/05/05 01:50:31;;;;;;;23.25;16.05;;;;;;;;;;5053938;28;20397;-68
2022/05/05 01:53:38;;;;;;;19.00;15.77;;;;;;;;;;5054006;28;20405;-68
2022/05/05 01:56:43;;;;;;;25.15;15.80;;;;;;;;;;5054041;28;20052;-68
2022/05/05 01:59:47;;;;;;;24.75;16.13;;;;;;;;;;5053803;28;20052;-68
2022/05/05 02:02:52;;;;;;;19.15;15.27;;;;;;;;;;5053850;28;20049;-68
2022/05/05 02:05:56;;;;;;;20.83;14.48;;;;;;;;;;5053715;28;20047;-68
2022/05/05 02:09:00;;;;;;;21.67;14.90;;;;;;;;;;5029848;28;20052;-68
2022/05/05 02:12:05;;;;;;;22.48;15.43;;;;;;;;;;5052796;28;20043;-68
2022/05/05 02:15:10;;;;;;;17.60;14.30;;;;;;;;;;5053560;28;20044;-68
2022/05/05 02:18:15;;;;;;;18.73;14.68;;;;;;;;;;5053797;28;20047;-68
2022/05/05 02:21:20;;;;;;;18.10;14.73;;;;;;;;;;5053200;28;20079;-68
2022/05/05 02:24:24;;;;;;;20.02;14.93;;;;;;;;;;5053109;28;20040;-68
2022/05/05 02:27:29;;;;;;;20.30;15.50;;;;;;;;;;5053116;28;20044;-68
2022/05/05 02:30:33;;;;;;;18.50;14.73;;;;;;;;;;5053246;28;20044;-68
2022/05/05 02:33:38;;;;;;;19.27;12.68;;;;;;;;;;5052847;28;20429;-68
2022/05/05 02:40:05;;;;;;;17.85;12.02;;;;;;;;;;5052663;28;20040;-68
2022/05/05 02:43:10;;;;;;;16.73;12.10;;;;;;;;;;5053560;28;20059;-68
2022/05/05 02:46:14;;;;;;;15.27;12.38;;;;;;;;;;5052093;28;20040;-68
2022/05/05 02:49:19;;;;;;;18.63;10.23;;;;;;;;;;5052869;28;20376;-69
2022/05/05 02:52:23;;;;;;;16.45;10.55;;;;;;;;;;5052678;28;20496;-68
2022/05/05 02:55:28;;;;;;;15.20;10.80;;;;;;;;;;5052595;28;20048;-68
2022/05/05 02:58:32;;;;;;;17.15;9.95;;;;;;;;;;5052670;28;20056;-68
2022/05/05 03:01:36;;;;;;;17.77;11.23;;;;;;;;;;5052267;28;20060;-68
2022/05/05 03:04:41;;;;;;;18.83;11.05;;;;;;;;;;5052593;28;20044;-68
2022/05/05 03:07:48;;;;;;;17.00;11.43;;;;;;;;;;5052398;28;20048;-68
2022/05/05 03:10:52;;;;;;;20.23;10.85;;;;;;;;;;5052333;28;20044;-68
2022/05/05 03:13:56;;;;;;;15.23;10.20;;;;;;;;;;5051852;28;20500;-68
2022/05/05 03:17:01;;;;;;;26.83;11.13;;;;;;;;;;5052438;28;20527;-68
2022/05/05 03:20:06;;;;;;;15.25;11.40;;;;;;;;;;5052400;28;20072;-68
2022/05/05 03:23:10;;;;;;;16.33;11.13;;;;;;;;;;5052133;28;20079;-68
2022/05/05 03:26:14;;;;;;;19.75;10.85;;;;;;;;;;5052182;28;20075;-68
2022/05/05 03:29:19;;;;;;;14.38;10.60;;;;;;;;;;5051877;28;20048;-68
2022/05/05 03:32:23;;;;;;;19.20;11.20;;;;;;;;;;5051800;28;20119;-68
2022/05/05 03:35:27;;;;;;;14.00;10.15;;;;;;;;;;5051963;28;20044;-69
2022/05/05 03:38:32;;;;;;;15.75;10.13;;;;;;;;;;5052061;28;20044;-68
2022/05/05 03:41:36;;;;;;;15.80;10.40;;;;;;;;;;5051843;28;20056;-69
2022/05/05 03:44:41;;;;;;;18.23;10.02;;;;;;;;;;5051979;28;20044;-68
2022/05/05 03:47:45;;;;;;;17.00;9.88;;;;;;;;;;5052093;28;20052;-68
2022/05/05 03:50:50;;;;;;;19.20;11.55;;;;;;;;;;5050614;28;20047;-68
2022/05/05 03:53:54;;;;;;;16.88;11.80;;;;;;;;;;5051487;28;20048;-68
2022/05/05 03:56:58;;;;;;;43.90;14.88;;;;;;;;;;5051050;28;20048;-68
2022/05/05 04:00:04;;;;;;;21.15;11.02;;;;;;;;;;5051171;28;20504;-68
2022/05/05 04:03:31;;;;;;;24.33;10.80;;;;;;;;;;5052096;28;20056;-67
2022/05/05 04:06:37;;;;;;;31.35;12.57;;;;;;;;;;5052319;28;20044;-68
2022/05/05 04:09:41;;;;;;;24.10;11.85;;;;;;;;;;5050938;28;20052;-68
2022/05/05 04:12:46;;;;;;;17.02;10.80;;;;;;;;;;5052335;28;20035;-68
2022/05/05 04:15:50;;;;;;;19.83;11.85;;;;;;;;;;5052143;28;20064;-69
2022/05/05 04:18:55;;;;;;;30.17;10.77;;;;;;;;;;5051862;28;20044;-68
2022/05/05 04:21:59;;;;;;;28.80;11.77;;;;;;;;;;5051966;28;20052;-68
2022/05/05 04:25:04;;;;;;;54.03;25.67;;;;;;;;;;5050934;28;20032;-68
2022/05/05 04:28:09;;;;;;;22.80;13.35;;;;;;;;;;5052155;28;20048;-69
2022/05/05 04:31:16;;;;;;;34.65;12.13;;;;;;;;;;5040649;28;20048;-68
2022/05/05 04:34:21;;;;;;;18.98;11.93;;;;;;;;;;5051657;28;20222;-69
2022/05/05 04:37:26;;;;;;;18.40;11.88;;;;;;;;;;5051642;28;20044;-69
2022/05/05 04:40:30;;;;;;;27.85;12.63;;;;;;;;;;5050925;28;20079;-68
2022/05/05 04:43:35;;;;;;;23.48;14.02;;;;;;;;;;5051419;28;20044;-69
2022/05/05 04:46:40;;;;;;;24.92;13.07;;;;;;;;;;5051831;28;20472;-68
2022/05/05 04:49:44;;;;;;;24.95;13.40;;;;;;;;;;5051774;28;20044;-71
2022/05/05 04:52:48;;;;;;;30.50;14.85;;;;;;;;;;5051702;28;20489;-70
2022/05/05 04:55:52;;;;;;;26.60;14.30;;;;;;;;;;5051733;28;20040;-68
2022/05/05 04:58:57;;;;;;;24.63;14.70;;;;;;;;;;5039434;28;20068;-68
2022/05/05 05:02:03;;;;;;;45.03;18.35;;;;;;;;;;5050768;28;20056;-68
2022/05/05 05:05:08;;;;;;;51.17;16.35;;;;;;;;;;5050709;28;20036;-69
2022/05/05 05:08:12;;;;;;;44.90;16.05;;;;;;;;;;5051242;28;20111;-69
2022/05/05 05:11:16;;;;;;;41.63;14.60;;;;;;;;;;5050726;28;20593;-69
2022/05/05 05:14:21;;;;;;;44.20;14.70;;;;;;;;;;5050168;28;20048;-69
2022/05/05 05:17:25;;;;;;;48.28;15.90;;;;;;;;;;5050313;28;20040;-68
2022/05/05 05:20:30;;;;;;;37.33;15.15;;;;;;;;;;5050146;28;20389;-68
2022/05/05 05:23:35;;;;;;;25.58;14.60;;;;;;;;;;5052117;28;20051;-68
2022/05/05 05:26:40;;;;;;;20.20;14.13;;;;;;;;;;5050714;28;20036;-67
2022/05/05 05:29:44;;;;;;;28.27;13.25;;;;;;;;;;5050514;28;20051;-67
2022/05/05 05:32:49;;;;;;;24.48;12.10;;;;;;;;;;5050654;28;20040;-67
2022/05/05 05:35:53;;;;;;;21.98;13.60;;;;;;;;;;5051071;28;20044;-73
2022/05/05 05:38:58;;;;;;;21.13;11.35;;;;;;;;;;5055370;28;20044;-74
2022/05/05 05:42:02;;;;;;;19.73;10.60;;;;;;;;;;5055307;28;20044;-73
2022/05/05 05:45:08;;;;;;;19.73;10.60;;;;;;;;;;5055707;28;20045;-73
2022/05/05 05:48:12;;;;;;;19.83;10.18;;;;;;;;;;5054299;28;20044;-73
2022/05/05 05:51:16;;;;;;;18.45;11.32;;;;;;;;;;5054225;28;20389;-73
2022/05/05 05:54:21;;;;;;;27.17;12.00;;;;;;;;;;5054546;28;20064;-69
2022/05/05 05:57:26;;;;;;;21.02;12.05;;;;;;;;;;5055501;28;20048;-72
2022/05/05 06:00:32;;;;;;;23.20;12.32;;;;;;;;;;5053273;28;20055;-72
2022/05/05 06:03:53;;;;;;;28.77;13.60;;;;;;;;;;5054325;28;20048;-70
2022/05/05 06:06:59;;;;;;;24.88;15.05;;;;;;;;;;5055601;28;20048;-71
2022/05/05 06:10:03;;;;;;;21.27;13.65;;;;;;;;;;5053486;28;20064;-73
2022/05/05 06:13:08;;;;;;;29.15;14.88;;;;;;;;;;5054186;28;20040;-71
2022/05/05 06:16:12;;;;;;;27.80;14.00;;;;;;;;;;5054613;28;20051;-74
2022/05/05 06:19:17;;;;;;;22.02;14.50;;;;;;;;;;5052443;28;20061;-72
2022/05/05 06:22:21;;;;;;;22.83;13.90;;;;;;;;;;5053619;28;20059;-70
2022/05/05 06:25:26;;;;;;;24.70;13.68;;;;;;;;;;5053795;28;20044;-73
2022/05/05 06:28:30;;;;;;;22.60;14.52;;;;;;;;;;5054059;28;20068;-80
2022/05/05 06:31:34;;;;;;;48.05;19.88;;;;;;;;;;5055572;28;20507;-75
2022/05/05 06:34:39;;;;;;;39.20;19.85;;;;;;;;;;5055069;28;20150;-77
2022/05/05 06:37:43;;;;;;;50.53;23.20;;;;;;;;;;5055230;28;20040;-75
2022/05/05 06:40:47;;;;;;;48.80;25.25;;;;;;;;;;5055394;28;20044;-75
2022/05/05 06:43:52;;;;;;;89.93;42.40;;;;;;;;;;5054763;28;20311;-75
2022/05/05 06:46:58;;;;;;;133.38;62.53;;;;;;;;;;5056764;28;20060;-76
2022/05/05 06:50:03;;;;;;;73.85;38.10;;;;;;;;;;5055471;28;20200;-76
2022/05/05 06:53:07;;;;;;;105.20;53.28;;;;;;;;;;5055968;28;20040;-76
2022/05/05 06:56:12;;;;;;;99.53;49.55;;;;;;;;;;5057944;28;20044;-75
2022/05/05 06:59:16;;;;;;;85.15;44.28;;;;;;;;;;5056452;28;20354;-76
2022/05/05 07:02:21;;;;;;;121.88;45.25;;;;;;;;;;5056224;28;20044;-76
2022/05/05 07:05:28;;;;;;;93.72;47.67;;;;;;;;;;5056340;28;20393;-75
2022/05/05 07:12:00;;;;;;;68.70;38.90;;;;;;;;;;5055668;28;20044;-75
2022/05/05 07:15:04;;;;;;;162.80;88.35;;;;;;;;;;5043164;28;20044;-74
2022/05/05 07:18:09;;;;;;;168.30;88.72;;;;;;;;;;5053068;28;20044;-72
2022/05/05 07:21:13;;;;;;;170.55;92.95;;;;;;;;;;5052867;28;20059;-73
2022/05/05 07:24:17;;;;;;;115.65;61.45;;;;;;;;;;5053794;28;20060;-72
2022/05/05 07:27:23;;;;;;;48.90;27.75;;;;;;;;;;5052311;28;20048;-72
2022/05/05 07:30:27;;;;;;;85.47;43.13;;;;;;;;;;5054242;28;20056;-72
2022/05/05 07:33:35;;;;;;;78.57;43.17;;;;;;;;;;5052551;28;20040;-71
2022/05/05 07:36:39;;;;;;;180.95;87.03;;;;;;;;;;5054306;28;20071;-74
2022/05/05 07:39:44;;;;;;;259.52;137.50;;;;;;;;;;5053659;28;20040;-72
2022/05/05 07:42:48;;;;;;;170.27;83.93;;;;;;;;;;5052671;28;20055;-72
2022/05/05 07:45:52;;;;;;;61.83;33.42;;;;;;;;;;5053182;28;20044;-71
2022/05/05 07:48:57;;;;;;;35.80;22.13;;;;;;;;;;5053730;28;20044;-71
2022/05/05 07:52:01;;;;;;;33.92;20.52;;;;;;;;;;5053663;28;20040;-72
2022/05/05 07:55:06;;;;;;;32.70;18.98;;;;;;;;;;5053694;28;20040;-73
2022/05/05 07:58:10;;;;;;;32.10;17.85;;;;;;;;;;5053620;28;20044;-73
2022/05/05 08:01:16;;;;;;;31.15;18.52;;;;;;;;;;5052581;28;20052;-72
2022/05/05 08:04:20;;;;;;;21.13;14.48;;;;;;;;;;5051420;28;20396;-71
2022/05/05 08:07:25;;;;;;;18.55;12.20;;;;;;;;;;5052051;28;20064;-71
2022/05/05 08:10:31;;;;;;;19.92;10.63;;;;;;;;;;5052675;28;20543;-72
2022/05/05 08:13:35;;;;;;;19.27;10.52;;;;;;;;;;5052194;28;20043;-72
2022/05/05 08:16:40;;;;;;;21.77;12.52;;;;;;;;;;5051950;28;20059;-69
2022/05/05 08:19:44;;;;;;;23.83;13.65;;;;;;;;;;5052542;28;20461;-73
2022/05/05 08:22:49;;;;;;;35.20;18.27;;;;;;;;;;5052374;28;20060;-73
2022/05/05 08:29:17;;;;;;;27.42;16.80;;;;;;;;;;5052827;28;20055;-74
2022/05/05 08:32:21;;;;;;;24.80;15.43;;;;;;;;;;5053745;28;20044;-69
2022/05/05 08:35:27;;;;;;;26.02;12.98;;;;;;;;;;5052425;28;20507;-73
2022/05/05 08:38:33;;;;;;;29.02;11.50;;;;;;;;;;5052753;28;20052;-73
2022/05/05 08:41:42;;;;;;;22.13;10.80;;;;;;;;;;5050911;28;20071;-72
2022/05/05 08:44:49;;;;;;;20.13;10.02;;;;;;;;;;5051287;28;20491;-73
2022/05/05 08:47:54;;;;;;;21.33;9.00;;;;;;;;;;5041853;28;20048;-73
2022/05/05 08:51:00;;;;;;;17.05;8.88;;;;;;;;;;5041393;28;20240;-75
2022/05/05 08:54:07;;;;;;;20.33;9.75;;;;;;;;;;5054398;28;20045;-74
2022/05/05 08:57:14;;;;;;;19.27;9.68;;;;;;;;;;5053883;28;20052;-73
2022/05/05 09:00:19;;;;;;;16.92;9.00;;;;;;;;;;5053550;28;20523;-74
2022/05/05 09:03:24;;;;;;;16.55;8.10;;;;;;;;;;5052842;28;20487;-70
2022/05/05 09:06:41;;;;;;;19.92;9.98;;;;;;;;;;5052370;28;20045;-70
2022/05/05 09:09:50;;;;;;;21.15;10.60;;;;;;;;;;5051239;28;20045;-71
2022/05/05 09:12:58;;;;;;;20.02;10.27;;;;;;;;;;5054810;28;20051;-70
2022/05/05 09:16:03;;;;;;;16.08;11.15;;;;;;;;;;5055681;28;20032;-73
2022/05/05 09:19:10;;;;;;;20.95;11.38;;;;;;;;;;5056182;28;20048;-69
2022/05/05 09:22:16;;;;;;;30.65;11.95;;;;;;;;;;5056552;28;20047;-71
2022/05/05 09:25:21;;;;;;;22.88;10.80;;;;;;;;;;5055196;28;20040;-72
2022/05/05 09:28:28;;;;;;;22.88;11.38;;;;;;;;;;5056170;28;20048;-75
2022/05/05 09:31:38;;;;;;;24.23;12.02;;;;;;;;;;5055662;28;20048;-72
2022/05/05 09:34:43;;;;;;;25.35;11.23;;;;;;;;;;5055598;28;20393;-73
2022/05/05 09:37:50;;;;;;;24.40;12.63;;;;;;;;;;5055644;28;20405;-70
2022/05/05 09:41:04;;;;;;;18.83;9.68;;;;;;;;;;5054942;28;20492;-71
2022/05/05 09:44:21;;;;;;;17.70;9.57;;;;;;;;;;5054999;28;20049;-71
2022/05/05 09:47:26;;;;;;;12.65;8.27;;;;;;;;;;5055648;28;20045;-73
2022/05/05 09:50:32;;;;;;;12.77;7.25;;;;;;;;;;5055501;28;20048;-72
2022/05/05 10:06:57;;;;;;;15.93;9.05;;;;;;;;;;5054302;28;20041;-72
2022/05/05 10:10:02;;;;;;;12.32;8.82;;;;;;;;;;5054593;28;20049;-73
2022/05/05 10:13:07;;;;;;;12.18;7.15;;;;;;;;;;5055229;28;20048;-73
2022/05/05 10:16:14;;;;;;;12.15;7.22;;;;;;;;;;5054770;28;20050;-73
2022/05/05 10:19:18;;;;;;;23.33;9.95;;;;;;;;;;5056180;28;20049;-71
2022/05/05 10:22:42;;;;;;;14.25;8.65;;;;;;;;;;5054437;28;20049;-67
2022/05/05 10:25:53;;;;;;;15.35;9.57;;;;;;;;;;5053548;28;20037;-71
2022/05/05 10:28:58;;;;;;;22.48;10.23;;;;;;;;;;5054609;28;20036;-69
2022/05/05 10:32:05;;;;;;;15.60;8.63;;;;;;;;;;5055175;28;20047;-71
2022/05/05 10:35:13;;;;;;;19.77;9.88;;;;;;;;;;5053699;28;20041;-68
2022/05/05 10:38:36;;;;;;;16.50;9.15;;;;;;;;;;5053941;28;20040;-72
2022/05/05 10:41:41;;;;;;;25.67;9.35;;;;;;;;;;5053716;28;20089;-71
2022/05/05 10:45:05;;;;;;;15.18;8.07;;;;;;;;;;5052722;28;20505;-71
2022/05/05 10:48:10;;;;;;;18.10;8.63;;;;;;;;;;5052587;28;20512;-70
2022/05/05 10:51:14;;;;;;;24.30;8.30;;;;;;;;;;5052785;28;20037;-68
2022/05/05 10:54:25;;;;;;;15.48;6.90;;;;;;;;;;5052809;28;20068;-71
2022/05/05 10:57:30;;;;;;;16.07;6.00;;;;;;;;;;5052992;28;20033;-69
2022/05/05 11:00:44;;;;;;;14.90;6.15;;;;;;;;;;5052042;28;20043;-69
2022/05/05 11:04:08;;;;;;;14.45;6.20;;;;;;;;;;5053043;28;20056;-70
2022/05/05 11:07:36;;;;;;;18.33;6.13;;;;;;;;;;5052740;28;20046;-69
2022/05/05 11:10:46;;;;;;;12.80;6.03;;;;;;;;;;5051970;28;20052;-70
2022/05/05 11:13:51;;;;;;;8.03;4.50;;;;;;;;;;5052261;28;20044;-69
2022/05/05 11:23:50;;;;;;;11.98;5.28;;;;;;;;;;5052307;28;20485;-71
2022/05/05 11:26:57;;;;;;;10.52;4.85;;;;;;;;;;5052463;28;20400;-70
2022/05/05 11:30:02;;;;;;;6.22;4.03;;;;;;;;;;5052930;28;20037;-70
2022/05/05 11:33:07;;;;;;;10.48;5.00;;;;;;;;;;5052443;28;20032;-71
2022/05/05 11:36:12;;;;;;;8.43;4.97;;;;;;;;;;5052689;28;20401;-70
2022/05/05 11:39:22;;;;;;;15.68;5.13;;;;;;;;;;5053025;28;20037;-70
2022/05/05 11:42:27;;;;;;;12.00;6.00;;;;;;;;;;5052521;28;20059;-69
2022/05/05 11:45:35;;;;;;;7.15;4.63;;;;;;;;;;5052634;28;20037;-70
2022/05/05 11:48:42;;;;;;;8.77;4.18;;;;;;;;;;5051774;28;20036;-70
2022/05/05 11:51:48;;;;;;;13.73;5.18;;;;;;;;;;5051269;28;20045;-68
2022/05/05 11:54:55;;;;;;;17.77;4.43;;;;;;;;;;5051906;28;20508;-70
2022/05/05 11:57:59;;;;;;;12.52;4.63;;;;;;;;;;5051263;28;20050;-68
2022/05/05 12:04:37;;;;;;;11.15;4.60;;;;;;;;;;5051852;28;20045;-68
2022/05/05 12:07:44;;;;;;;7.80;4.13;;;;;;;;;;5051850;28;20499;-69
2022/05/05 12:10:49;;;;;;;12.65;5.35;;;;;;;;;;5051578;28;20477;-71
2022/05/05 12:14:06;;;;;;;6.28;4.38;;;;;;;;;;5051647;28;20052;-70
2022/05/05 12:17:12;;;;;;;11.95;4.57;;;;;;;;;;5051908;28;20366;-70
2022/05/05 12:20:18;;;;;;;11.52;4.95;;;;;;;;;;5051483;28;20033;-69
2022/05/05 12:23:25;;;;;;;12.50;5.22;;;;;;;;;;5051451;28;20036;-68
2022/05/05 12:26:34;;;;;;;9.80;4.80;;;;;;;;;;5050999;28;20047;-71
2022/05/05 12:29:46;;;;;;;7.20;4.80;;;;;;;;;;5052263;28;20148;-70
2022/05/05 12:32:50;;;;;;;10.15;5.10;;;;;;;;;;5051276;28;20045;-69
2022/05/05 12:35:55;;;;;;;12.88;5.07;;;;;;;;;;5051485;28;20500;-70
2022/05/05 12:39:09;;;;;;;10.30;5.68;;;;;;;;;;5050958;28;20052;-70
2022/05/05 12:42:14;;;;;;;14.23;5.45;;;;;;;;;;5050592;28;20544;-69
2022/05/05 12:45:27;;;;;;;11.80;5.10;;;;;;;;;;5051125;28;20048;-68
2022/05/05 12:48:31;;;;;;;8.68;4.63;;;;;;;;;;5050379;28;20047;-68
2022/05/05 12:51:39;;;;;;;12.80;4.95;;;;;;;;;;5051088;28;20041;-68
2022/05/05 13:01:30;;;;;;;9.60;4.50;;;;;;;;;;5050983;28;20041;-70
2022/05/05 13:04:35;;;;;;;13.77;4.88;;;;;;;;;;5051326;28;20040;-70
2022/05/05 13:07:39;;;;;;;14.65;4.45;;;;;;;;;;5049861;28;20059;-69
2022/05/05 13:10:46;;;;;;;7.43;2.90;;;;;;;;;;5050931;28;20053;-69
2022/05/05 13:13:52;;;;;;;11.25;3.40;;;;;;;;;;5051187;28;20049;-69
2022/05/05 13:16:58;;;;;;;11.65;2.88;;;;;;;;;;5038606;28;20511;-71
2022/05/05 13:20:02;;;;;;;9.38;3.22;;;;;;;;;;5050664;28;20064;-71
2022/05/05 13:23:07;;;;;;;8.15;3.45;;;;;;;;;;5050857;28;20041;-69
2022/05/05 13:26:11;;;;;;;8.55;3.50;;;;;;;;;;5050494;28;20481;-70
2022/05/05 13:29:16;;;;;;;9.48;3.63;;;;;;;;;;5050595;28;20033;-70
2022/05/05 13:32:20;;;;;;;11.50;3.10;;;;;;;;;;5050880;28;20037;-70
2022/05/05 13:35:25;;;;;;;8.73;3.20;;;;;;;;;;5050473;28;20053;-70
2022/05/05 13:38:29;;;;;;;10.65;2.70;;;;;;;;;;5050723;28;20029;-70
2022/05/05 13:41:35;;;;;;;4.97;2.40;;;;;;;;;;5050613;28;20512;-71
2022/05/05 13:44:39;;;;;;;6.22;2.70;;;;;;;;;;5050978;28;20049;-71
2022/05/05 13:47:45;;;;;;;12.75;4.97;;;;;;;;;;5050840;28;20033;-70
2022/05/05 13:50:50;;;;;;;9.20;5.10;;;;;;;;;;5050397;28;20037;-69
2022/05/05 13:53:55;;;;;;;11.52;5.05;;;;;;;;;;5050349;28;20041;-69
2022/05/05 13:56:59;;;;;;;14.25;5.32;;;;;;;;;;5050459;28;20038;-70
2022/05/05 14:00:04;;;;;;;11.88;4.72;;;;;;;;;;5053624;28;20045;-68
2022/05/05 14:03:15;;;;;;;22.90;5.80;;;;;;;;;;5053419;28;20052;-70
2022/05/05 14:06:19;;;;;;;11.75;5.30;;;;;;;;;;5053853;28;20405;-68
2022/05/05 14:12:47;;;;;;;12.45;4.50;;;;;;;;;;5054052;28;20040;-69
2022/05/05 14:15:52;;;;;;;12.45;5.38;;;;;;;;;;5054339;28;20041;-67
2022/05/05 14:18:56;;;;;;;13.60;5.95;;;;;;;;;;5053708;28;20044;-70
2022/05/05 14:22:01;;;;;;;9.93;5.03;;;;;;;;;;5053588;28;20056;-69
2022/05/05 14:25:05;;;;;;;14.95;5.28;;;;;;;;;;5053852;28;20029;-69
2022/05/05 14:28:10;;;;;;;11.20;5.28;;;;;;;;;;5054183;28;20045;-69
2022/05/05 14:31:19;;;;;;;15.75;6.90;;;;;;;;;;5053472;28;20033;-70
2022/05/05 14:34:24;;;;;;;10.02;6.13;;;;;;;;;;5052961;28;20048;-68
2022/05/05 14:37:28;;;;;;;11.18;5.85;;;;;;;;;;5052929;28;20047;-69
2022/05/05 14:40:33;;;;;;;17.15;6.38;;;;;;;;;;5053612;28;20370;-71
2022/05/05 14:43:38;;;;;;;19.85;6.63;;;;;;;;;;5053856;28;20052;-71
2022/05/05 14:46:42;;;;;;;15.25;6.60;;;;;;;;;;5053318;28;20040;-68
2022/05/05 14:49:48;;;;;;;15.52;7.30;;;;;;;;;;5053249;28;20045;-70
2022/05/05 14:52:53;;;;;;;19.23;6.22;;;;;;;;;;5052421;28;20044;-68
2022/05/05 14:55:58;;;;;;;18.58;6.80;;;;;;;;;;5052689;28;20044;-69
2022/05/05 14:59:03;;;;;;;18.52;5.93;;;;;;;;;;5052428;28;20338;-71
2022/05/05 15:02:07;;;;;;;10.80;5.45;;;;;;;;;;5053415;28;20044;-70
2022/05/05 15:05:14;;;;;;;14.52;5.78;;;;;;;;;;5053050;28;20035;-71
2022/05/05 15:08:19;;;;;;;14.98;6.18;;;;;;;;;;5051894;28;20056;-72
2022/05/05 15:11:23;;;;;;;12.18;6.07;;;;;;;;;;5039985;28;20041;-70
2022/05/05 15:14:28;;;;;;;15.02;6.50;;;;;;;;;;5052998;28;20037;-68
2022/05/05 15:17:33;;;;;;;15.02;6.30;;;;;;;;;;5053025;28;20106;-68
2022/05/05 15:20:37;;;;;;;13.02;5.90;;;;;;;;;;5053167;28;20473;-70
2022/05/05 15:23:41;;;;;;;22.13;6.68;;;;;;;;;;5052624;28;20396;-69
2022/05/05 15:26:46;;;;;;;13.75;6.03;;;;;;;;;;5052796;28;20044;-70
2022/05/05 15:29:51;;;;;;;11.85;6.10;;;;;;;;;;5051805;28;20029;-71
2022/05/05 15:32:55;;;;;;;13.02;5.47;;;;;;;;;;5051821;28;20519;-72
2022/05/05 15:36:00;;;;;;;11.68;6.15;;;;;;;;;;5052654;28;20519;-69
2022/05/05 15:39:05;;;;;;;23.23;6.05;;;;;;;;;;5052345;28;20045;-70
2022/05/05 15:42:09;;;;;;;11.82;5.88;;;;;;;;;;5052349;28;20053;-71
2022/05/05 15:45:13;;;;;;;16.65;6.45;;;;;;;;;;5052031;28;20041;-72
2022/05/05 15:48:18;;;;;;;14.88;5.72;;;;;;;;;;5053904;28;20048;-72
2022/05/05 15:51:24;;;;;;;12.95;6.43;;;;;;;;;;5051923;28;20167;-71
2022/05/05 15:54:28;;;;;;;16.25;5.80;;;;;;;;;;5052385;28;20048;-69
2022/05/05 15:57:33;;;;;;;14.35;6.15;;;;;;;;;;5051860;28;20389;-69
2022/05/05 16:00:37;;;;;;;14.70;6.05;;;;;;;;;;5052274;28;20037;-69
2022/05/05 16:03:42;;;;;;;15.65;5.53;;;;;;;;;;5052525;28;20060;-68
2022/05/05 16:06:47;;;;;;;14.25;5.55;;;;;;;;;;5051663;28;20037;-70
2022/05/05 16:09:53;;;;;;;14.00;5.30;;;;;;;;;;5051466;28;20052;-68
2022/05/05 16:12:59;;;;;;;14.50;5.10;;;;;;;;;;5052068;28;20400;-69
2022/05/05 16:16:04;;;;;;;8.18;5.65;;;;;;;;;;5052329;28;20048;-69
2022/05/05 16:19:08;;;;;;;11.63;4.95;;;;;;;;;;5051843;28;20036;-68
2022/05/05 16:22:13;;;;;;;10.80;4.55;;;;;;;;;;5051868;28;20052;-69
2022/05/05 16:32:05;;;;;;;16.60;5.60;;;;;;;;;;5050668;28;20032;-68
2022/05/05 16:35:11;;;;;;;17.73;6.35;;;;;;;;;;5051598;28;20040;-68
2022/05/05 16:38:16;;;;;;;14.23;6.03;;;;;;;;;;5051390;28;20045;-70
2022/05/05 16:41:20;;;;;;;16.92;6.55;;;;;;;;;;5051823;28;20480;-70
2022/05/05 16:44:24;;;;;;;10.18;5.50;;;;;;;;;;5050355;28;20036;-69
2022/05/05 16:47:29;;;;;;;7.65;5.13;;;;;;;;;;5051666;28;20037;-69
2022/05/05 16:50:33;;;;;;;9.45;5.60;;;;;;;;;;5050718;28;20366;-68
2022/05/05 16:53:38;;;;;;;11.60;6.38;;;;;;;;;;5051368;28;20037;-68
2022/05/05 16:56:43;;;;;;;10.77;5.65;;;;;;;;;;5050494;28;20037;-68
2022/05/05 16:59:47;;;;;;;12.63;5.57;;;;;;;;;;5051359;28;20041;-68
2022/05/05 17:02:52;;;;;;;21.30;6.93;;;;;;;;;;5050595;28;20040;-68
2022/05/05 17:05:57;;;;;;;7.72;5.68;;;;;;;;;;5049496;28;20695;-68
2022/05/05 17:09:01;;;;;;;11.73;5.97;;;;;;;;;;5050455;28;20045;-70
2022/05/05 17:12:06;;;;;;;10.20;6.07;;;;;;;;;;5050506;28;20389;-68
2022/05/05 17:15:11;;;;;;;15.02;7.07;;;;;;;;;;5050399;28;20033;-68
2022/05/05 17:18:15;;;;;;;12.27;5.95;;;;;;;;;;5050048;28;20036;-69
2022/05/05 17:21:19;;;;;;;13.45;6.57;;;;;;;;;;5049433;28;20060;-66
2022/05/05 17:24:24;;;;;;;13.27;6.30;;;;;;;;;;5050674;28;20047;-67
2022/05/05 17:27:29;;;;;;;15.98;6.35;;;;;;;;;;5051168;28;20033;-69
2022/05/05 17:30:34;;;;;;;20.52;7.10;;;;;;;;;;5049592;28;20150;-69
2022/05/05 17:33:38;;;;;;;13.27;7.25;;;;;;;;;;5052554;28;20064;-68
2022/05/05 17:36:42;;;;;;;14.82;6.90;;;;;;;;;;5053305;28;20045;-68
2022/05/05 17:39:47;;;;;;;13.38;7.22;;;;;;;;;;5054165;28;20033;-69
2022/05/05 17:42:51;;;;;;;15.75;6.80;;;;;;;;;;5053731;28;20056;-67
2022/05/05 17:52:43;;;;;;;17.38;6.65;;;;;;;;;;5052659;28;20064;-68
2022/05/05 17:55:48;;;;;;;17.80;7.22;;;;;;;;;;5053669;28;20044;-68
2022/05/05 17:58:52;;;;;;;14.40;7.40;;;;;;;;;;5053675;28;20045;-68
2022/05/05 18:01:58;;;;;;;15.18;6.68;;;;;;;;;;5053573;28;20523;-68
2022/05/05 18:05:03;;;;;;;11.63;6.32;;;;;;;;;;5053628;28;20033;-72
2022/05/05 18:08:08;;;;;;;14.77;6.85;;;;;;;;;;5053729;28;20052;-68
2022/05/05 18:11:12;;;;;;;17.25;6.80;;;;;;;;;;5053518;28;20045;-68
2022/05/05 18:14:16;;;;;;;11.68;6.50;;;;;;;;;;5053625;28;20392;-69
2022/05/05 18:17:21;;;;;;;16.23;8.00;;;;;;;;;;5052789;28;20500;-69
2022/05/05 18:20:25;;;;;;;15.45;7.38;;;;;;;;;;5053168;28;20389;-69
2022/05/05 18:23:31;;;;;;;17.75;7.13;;;;;;;;;;5052811;28;20420;-69
2022/05/05 18:26:36;;;;;;;12.70;6.70;;;;;;;;;;5052800;28;20037;-69
2022/05/05 18:29:40;;;;;;;17.45;8.32;;;;;;;;;;5051830;28;20044;-69
2022/05/05 18:32:45;;;;;;;28.30;8.43;;;;;;;;;;5052220;28;20033;-69
2022/05/05 18:35:49;;;;;;;20.45;6.75;;;;;;;;;;5053067;28;20029;-69
2022/05/05 18:38:56;;;;;;;8.27;5.35;;;;;;;;;;5052726;28;20040;-69
2022/05/05 18:42:00;;;;;;;19.33;6.70;;;;;;;;;;5052625;28;20033;-69
2022/05/05 18:45:05;;;;;;;18.77;6.57;;;;;;;;;;5051336;28;20056;-69
2022/05/05 18:48:10;;;;;;;11.02;6.15;;;;;;;;;;5052896;28;20049;-69
2022/05/05 18:51:16;;;;;;;11.80;5.15;;;;;;;;;;5053021;28;20489;-69
2022/05/05 18:54:20;;;;;;;17.23;6.32;;;;;;;;;;5052205;28;20041;-69
2022/05/05 18:57:25;;;;;;;15.40;6.63;;;;;;;;;;5051672;28;20036;-69
2022/05/05 19:00:29;;;;;;;14.65;6.18;;;;;;;;;;5052953;28;20040;-69
2022/05/05 19:03:35;;;;;;;16.58;6.30;;;;;;;;;;5052714;28;20051;-69
2022/05/05 19:06:39;;;;;;;15.15;5.45;;;;;;;;;;5052863;28;20044;-69
2022/05/05 19:09:45;;;;;;;9.70;4.57;;;;;;;;;;5051309;28;20050;-68
2022/05/05 19:12:50;;;;;;;12.68;4.78;;;;;;;;;;5051687;28;20454;-68